sensor_id;sensor_type;location;lat;lon;timestamp;pressure;altitude;pressure_sealevel;temperature;humidity
7441;BME280;29616;51.950;8.572;2023-01-28T00:00:13;101248.72;;;2.14;100.00
7441;BME280;29616;51.950;8.572;2023-01-28T00:02:42;101244.34;;;2.11;100.00
7441;BME280;29616;51.950;8.572;2023-01-28T00:05:13;101244.19;;;2.14;100.00
7441;BME280;29616;51.950;8.572;2023-01-28T00:07:43;101244.06;;;2.17;100.00
7441;BME280;29616;51.950;8.572;2023-01-28T00:10:15;101237.34;;;2.07;100.00
7441;BME280;29616;51.950;8.572;2023-01-28T00:12:45;101242.28;;;2.16;100.00
7441;BME280;29616;51.950;8.572;2023-01-28T00:15:14;101242.44;;;2.13;100.00
7441;BME280;29616;51.950;8.572;2023-01-28T00:17:43;101245.97;;;2.15;100.00
7441;BME280;29616;51.950;8.572;2023-01-28T00:20:12;101240.84;;;2.09;100.00
7441;BME280;29616;51.950;8.572;2023-01-28T00:22:46;101248.56;;;2.17;100.00
7441;BME280;29616;51.950;8.572;2023-01-28T00:25:19;101244.41;;;2.10;100.00
7441;BME280;29616;51.950;8.572;2023-01-28T00:27:48;101230.19;;;2.06;100.00
7441;BME280;29616;51.950;8.572;2023-01-28T00:30:17;101237.13;;;2.12;100.00
7441;BME280;29616;51.950;8.572;2023-01-28T00:32:46;101249.44;;;2.17;100.00
7441;BME280;29616;51.950;8.572;2023-01-28T00:35:19;101245.97;;;2.15;100.00
7441;BME280;29616;51.950;8.572;2023-01-28T00:37:48;101238.00;;;2.12;100.00
7441;BME280;29616;51.950;8.572;2023-01-28T00:40:20;101249.44;;;2.17;100.00
7441;BME280;29616;51.950;8.572;2023-01-28T00:42:49;101253.97;;;2.17;100.00
7441;BME280;29616;51.950;8.572;2023-01-28T00:45:20;101256.66;;;2.17;100.00
7441;BME280;29616;51.950;8.572;2023-01-28T00:47:49;101266.56;;;2.16;100.00
7441;BME280;29616;51.950;8.572;2023-01-28T00:50:19;101256.75;;;2.15;100.00
7441;BME280;29616;51.950;8.572;2023-01-28T00:52:48;101263.88;;;2.16;100.00
7441;BME280;29616;51.950;8.572;2023-01-28T00:55:19;101259.50;;;2.14;100.00
7441;BME280;29616;51.950;8.572;2023-01-28T00:57:48;101258.69;;;2.12;100.00
7441;BME280;29616;51.950;8.572;2023-01-28T01:00:18;101255.13;;;2.11;100.00
7441;BME280;29616;51.950;8.572;2023-01-28T01:02:48;101263.06;;;2.14;100.00
7441;BME280;29616;51.950;8.572;2023-01-28T01:05:16;101235.81;;;2.02;100.00
7441;BME280;29616;51.950;8.572;2023-01-28T01:07:44;101242.44;;;2.13;100.00
7441;BME280;29616;51.950;8.572;2023-01-28T01:10:17;101229.19;;;2.09;100.00
7441;BME280;29616;51.950;8.572;2023-01-28T01:12:49;101231.97;;;2.07;100.00
7441;BME280;29616;51.950;8.572;2023-01-28T01:15:19;101230.28;;;2.05;100.00
7441;BME280;29616;51.950;8.572;2023-01-28T01:17:49;101232.47;;;2.15;100.00
7441;BME280;29616;51.950;8.572;2023-01-28T01:20:23;101225.75;;;2.05;100.00
7441;BME280;29616;51.950;8.572;2023-01-28T01:22:51;101224.03;;;1.84;100.00
7441;BME280;29616;51.950;8.572;2023-01-28T01:25:22;101246.50;;;2.03;100.00
7441;BME280;29616;51.950;8.572;2023-01-28T01:27:52;101239.38;;;2.02;100.00
7441;BME280;29616;51.950;8.572;2023-01-28T01:30:20;101242.66;;;2.09;100.00
7441;BME280;29616;51.950;8.572;2023-01-28T01:32:50;101229.53;;;2.01;100.00
7441;BME280;29616;51.950;8.572;2023-01-28T01:35:18;101252.44;;;2.11;100.00
7441;BME280;29616;51.950;8.572;2023-01-28T01:37:46;101266.34;;;2.02;100.00
7441;BME280;29616;51.950;8.572;2023-01-28T01:40:16;101248.31;;;2.03;100.00
7441;BME280;29616;51.950;8.572;2023-01-28T01:42:44;101234.50;;;1.92;100.00
7441;BME280;29616;51.950;8.572;2023-01-28T01:45:14;101245.19;;;1.93;100.00
7441;BME280;29616;51.950;8.572;2023-01-28T01:47:46;101259.19;;;1.82;100.00
7441;BME280;29616;51.950;8.572;2023-01-28T01:50:22;101255.09;;;1.93;100.00
7441;BME280;29616;51.950;8.572;2023-01-28T01:52:58;101246.09;;;1.94;100.00
7441;BME280;29616;51.950;8.572;2023-01-28T01:55:31;101253.19;;;1.95;100.00
7441;BME280;29616;51.950;8.572;2023-01-28T01:58:08;101244.25;;;1.94;100.00
7441;BME280;29616;51.950;8.572;2023-01-28T02:00:41;101238.63;;;1.80;100.00
7441;BME280;29616;51.950;8.572;2023-01-28T02:03:11;101241.47;;;1.77;100.00
7441;BME280;29616;51.950;8.572;2023-01-28T02:05:39;101265.22;;;1.88;100.00
7441;BME280;29616;51.950;8.572;2023-01-28T02:08:09;101258.75;;;1.92;100.00
7441;BME280;29616;51.950;8.572;2023-01-28T02:10:57;101255.06;;;1.94;100.00
7441;BME280;29616;51.950;8.572;2023-01-28T02:13:29;101264.88;;;1.95;100.00
7441;BME280;29616;51.950;8.572;2023-01-28T02:16:02;101247.38;;;1.85;100.00
7441;BME280;29616;51.950;8.572;2023-01-28T02:18:33;101270.25;;;1.95;100.00
7441;BME280;29616;51.950;8.572;2023-01-28T02:24:28;101267.31;;;1.81;100.00
7441;BME280;29616;51.950;8.572;2023-01-28T02:27:18;101272.53;;;1.86;100.00
7441;BME280;29616;51.950;8.572;2023-01-28T02:29:55;101275.00;;;1.90;100.00
7441;BME280;29616;51.950;8.572;2023-01-28T02:32:37;101276.75;;;1.91;100.00
7441;BME280;29616;51.950;8.572;2023-01-28T02:35:14;101248.13;;;1.68;100.00
7441;BME280;29616;51.950;8.572;2023-01-28T02:37:52;101281.63;;;1.83;100.00
7441;BME280;29616;51.950;8.572;2023-01-28T02:40:28;101267.66;;;1.73;100.00
7441;BME280;29616;51.950;8.572;2023-01-28T02:42:59;101271.38;;;1.71;100.00
7441;BME280;29616;51.950;8.572;2023-01-28T02:45:32;101264.97;;;1.73;100.00
7441;BME280;29616;51.950;8.572;2023-01-28T02:48:18;101275.69;;;1.75;100.00
7441;BME280;29616;51.950;8.572;2023-01-28T02:50:50;101270.69;;;1.86;100.00
7441;BME280;29616;51.950;8.572;2023-01-28T02:53:26;101260.84;;;1.85;100.00
7441;BME280;29616;51.950;8.572;2023-01-28T02:56:19;101258.28;;;1.82;100.00
7441;BME280;29616;51.950;8.572;2023-01-28T02:59:02;101265.97;;;1.91;100.00
7441;BME280;29616;51.950;8.572;2023-01-28T03:02:03;101265.97;;;1.91;100.00
7441;BME280;29616;51.950;8.572;2023-01-28T03:04:42;101261.47;;;1.92;100.00
7441;BME280;29616;51.950;8.572;2023-01-28T03:07:13;101259.97;;;1.84;100.00
7441;BME280;29616;51.950;8.572;2023-01-28T03:09:45;101256.38;;;1.84;100.00
7441;BME280;29616;51.950;8.572;2023-01-28T03:12:20;101256.25;;;1.87;100.00
7441;BME280;29616;51.950;8.572;2023-01-28T03:15:12;101262.53;;;1.88;100.00
7441;BME280;29616;51.950;8.572;2023-01-28T03:18:06;101261.66;;;1.87;100.00
7441;BME280;29616;51.950;8.572;2023-01-28T03:21:03;101266.47;;;1.80;100.00
7441;BME280;29616;51.950;8.572;2023-01-28T03:23:57;101268.19;;;1.81;100.00
7441;BME280;29616;51.950;8.572;2023-01-28T03:26:57;101263.63;;;1.83;100.00
7441;BME280;29616;51.950;8.572;2023-01-28T03:29:58;101257.72;;;1.75;100.00
7441;BME280;29616;51.950;8.572;2023-01-28T03:32:45;101261.47;;;1.71;100.00
7441;BME280;29616;51.950;8.572;2023-01-28T03:35:36;101250.56;;;1.74;100.00
7441;BME280;29616;51.950;8.572;2023-01-28T03:38:24;101250.50;;;1.56;100.00
7441;BME280;29616;51.950;8.572;2023-01-28T03:41:03;101259.78;;;1.69;100.00
7441;BME280;29616;51.950;8.572;2023-01-28T03:43:32;101251.63;;;1.70;100.00
7441;BME280;29616;51.950;8.572;2023-01-28T03:46:01;101234.06;;;1.62;100.00
7441;BME280;29616;51.950;8.572;2023-01-28T03:48:30;101246.06;;;1.75;100.00
7441;BME280;29616;51.950;8.572;2023-01-28T03:51:04;101259.31;;;1.79;100.00
7441;BME280;29616;51.950;8.572;2023-01-28T03:53:34;101253.34;;;1.73;100.00
7441;BME280;29616;51.950;8.572;2023-01-28T03:56:03;101258.88;;;1.70;100.00
7441;BME280;29616;51.950;8.572;2023-01-28T03:58:33;101262.41;;;1.70;100.00
7441;BME280;29616;51.950;8.572;2023-01-28T04:01:19;101242.28;;;1.59;100.00
7441;BME280;29616;51.950;8.572;2023-01-28T04:03:48;101249.94;;;1.68;100.00
7441;BME280;29616;51.950;8.572;2023-01-28T04:06:25;101265.09;;;1.70;100.00
7441;BME280;29616;51.950;8.572;2023-01-28T04:09:15;101262.34;;;1.72;100.00
7441;BME280;29616;51.950;8.572;2023-01-28T04:12:03;101244.09;;;1.58;100.00
7441;BME280;29616;51.950;8.572;2023-01-28T04:14:38;101266.41;;;1.62;100.00
7441;BME280;29616;51.950;8.572;2023-01-28T04:17:13;101256.56;;;1.61;100.00
7441;BME280;29616;51.950;8.572;2023-01-28T04:19:44;101273.41;;;1.66;100.00
7441;BME280;29616;51.950;8.572;2023-01-28T04:22:17;101280.41;;;1.70;100.00
7441;BME280;29616;51.950;8.572;2023-01-28T04:24:46;101274.16;;;1.69;100.00
7441;BME280;29616;51.950;8.572;2023-01-28T04:27:17;101275.97;;;1.69;100.00
7441;BME280;29616;51.950;8.572;2023-01-28T04:29:47;101280.41;;;1.70;100.00
7441;BME280;29616;51.950;8.572;2023-01-28T04:32:34;101271.59;;;1.66;100.00
7441;BME280;29616;51.950;8.572;2023-01-28T04:35:16;101272.59;;;1.64;100.00
7441;BME280;29616;51.950;8.572;2023-01-28T04:38:20;101281.00;;;1.76;100.00
7441;BME280;29616;51.950;8.572;2023-01-28T04:41:01;101284.59;;;1.77;100.00
7441;BME280;29616;51.950;8.572;2023-01-28T04:43:32;101290.06;;;1.75;100.00
7441;BME280;29616;51.950;8.572;2023-01-28T04:46:32;101291.06;;;1.73;100.00
7441;BME280;29616;51.950;8.572;2023-01-28T04:49:25;101300.34;;;1.66;100.00
7441;BME280;29616;51.950;8.572;2023-01-28T04:52:14;101295.84;;;1.66;100.00
7441;BME280;29616;51.950;8.572;2023-01-28T04:54:57;101286.66;;;1.70;100.00
7441;BME280;29616;51.950;8.572;2023-01-28T04:57:29;101281.50;;;1.66;100.00
7441;BME280;29616;51.950;8.572;2023-01-28T04:59:58;101294.84;;;1.69;100.00
7441;BME280;29616;51.950;8.572;2023-01-28T05:02:28;101291.69;;;1.59;100.00
7441;BME280;29616;51.950;8.572;2023-01-28T05:04:58;101285.31;;;1.60;100.00
7441;BME280;29616;51.950;8.572;2023-01-28T05:07:40;101292.47;;;1.61;100.00
7441;BME280;29616;51.950;8.572;2023-01-28T05:10:11;101275.81;;;1.52;100.00
7441;BME280;29616;51.950;8.572;2023-01-28T05:12:40;101287.22;;;1.58;100.00
7441;BME280;29616;51.950;8.572;2023-01-28T05:15:12;101279.28;;;1.55;100.00
7441;BME280;29616;51.950;8.572;2023-01-28T05:17:41;101275.56;;;1.58;100.00
7441;BME280;29616;51.950;8.572;2023-01-28T05:20:13;101278.94;;;1.63;100.00
7441;BME280;29616;51.950;8.572;2023-01-28T05:22:45;101275.34;;;1.62;100.00
7441;BME280;29616;51.950;8.572;2023-01-28T05:25:19;101275.31;;;1.64;100.00
7441;BME280;29616;51.950;8.572;2023-01-28T05:27:51;101283.38;;;1.64;100.00
7441;BME280;29616;51.950;8.572;2023-01-28T05:30:21;101284.31;;;1.63;100.00
7441;BME280;29616;51.950;8.572;2023-01-28T05:32:54;101294.22;;;1.62;100.00
7441;BME280;29616;51.950;8.572;2023-01-28T05:35:25;101295.09;;;1.63;100.00
7441;BME280;29616;51.950;8.572;2023-01-28T05:37:54;101283.31;;;1.65;100.00
7441;BME280;29616;51.950;8.572;2023-01-28T05:40:29;101285.16;;;1.65;100.00
7441;BME280;29616;51.950;8.572;2023-01-28T05:42:59;101283.31;;;1.65;100.00
7441;BME280;29616;51.950;8.572;2023-01-28T05:45:36;101296.72;;;1.67;100.00
7441;BME280;29616;51.950;8.572;2023-01-28T05:48:10;101289.78;;;1.61;100.00
7441;BME280;29616;51.950;8.572;2023-01-28T05:50:47;101302.25;;;1.64;100.00
7441;BME280;29616;51.950;8.572;2023-01-28T05:53:28;101297.13;;;1.58;100.00
7441;BME280;29616;51.950;8.572;2023-01-28T05:55:59;101294.22;;;1.62;100.00
7441;BME280;29616;51.950;8.572;2023-01-28T05:58:31;101297.00;;;1.61;100.00
7441;BME280;29616;51.950;8.572;2023-01-28T06:01:02;101291.28;;;1.48;100.00
7441;BME280;29616;51.950;8.572;2023-01-28T06:03:41;101295.66;;;1.51;100.00
7441;BME280;29616;51.950;8.572;2023-01-28T06:06:11;101296.31;;;1.56;100.00
7441;BME280;29616;51.950;8.572;2023-01-28T06:08:40;101293.75;;;1.53;100.00
7441;BME280;29616;51.950;8.572;2023-01-28T06:11:11;101291.72;;;1.58;100.00
7441;BME280;29616;51.950;8.572;2023-01-28T06:13:42;101279.22;;;1.57;100.00
7441;BME280;29616;51.950;8.572;2023-01-28T06:16:29;101285.47;;;1.57;100.00
7441;BME280;29616;51.950;8.572;2023-01-28T06:19:20;101290.13;;;1.54;100.00
7441;BME280;29616;51.950;8.572;2023-01-28T06:21:50;101290.25;;;1.51;100.00
7441;BME280;29616;51.950;8.572;2023-01-28T06:24:19;101290.53;;;1.45;100.00
7441;BME280;29616;51.950;8.572;2023-01-28T06:26:51;101292.16;;;1.49;100.00
7441;BME280;29616;51.950;8.572;2023-01-28T06:29:19;101294.75;;;1.50;100.00
7441;BME280;29616;51.950;8.572;2023-01-28T06:31:49;101304.00;;;1.45;100.00
7441;BME280;29616;51.950;8.572;2023-01-28T06:34:18;101301.16;;;1.48;100.00
7441;BME280;29616;51.950;8.572;2023-01-28T06:36:48;101304.31;;;1.37;100.00
7441;BME280;29616;51.950;8.572;2023-01-28T06:39:19;101285.13;;;1.25;100.00
7441;BME280;29616;51.950;8.572;2023-01-28T06:41:50;101298.19;;;1.34;100.00
7441;BME280;29616;51.950;8.572;2023-01-28T06:44:18;101305.09;;;1.41;100.00
7441;BME280;29616;51.950;8.572;2023-01-28T06:46:49;101292.94;;;1.31;100.00
7441;BME280;29616;51.950;8.572;2023-01-28T06:49:18;101306.13;;;1.37;100.00
7441;BME280;29616;51.950;8.572;2023-01-28T06:51:48;101302.84;;;1.30;100.00
7441;BME280;29616;51.950;8.572;2023-01-28T06:54:16;101306.41;;;1.31;100.00
7441;BME280;29616;51.950;8.572;2023-01-28T06:56:48;101301.09;;;1.29;100.00
7441;BME280;29616;51.950;8.572;2023-01-28T06:59:17;101309.78;;;1.36;100.00
7441;BME280;29616;51.950;8.572;2023-01-28T07:01:45;101313.28;;;1.38;100.00
7441;BME280;29616;51.950;8.572;2023-01-28T07:04:15;101307.34;;;1.30;100.00
7441;BME280;29616;51.950;8.572;2023-01-28T07:06:45;101307.22;;;1.33;100.00
7441;BME280;29616;51.950;8.572;2023-01-28T07:09:13;101292.88;;;1.32;100.00
7441;BME280;29616;51.950;8.572;2023-01-28T07:11:44;101291.06;;;1.33;100.00
7441;BME280;29616;51.950;8.572;2023-01-28T07:14:12;101283.84;;;1.33;100.00
7441;BME280;29616;51.950;8.572;2023-01-28T07:16:44;101295.44;;;1.35;100.00
7441;BME280;29616;51.950;8.572;2023-01-28T07:19:17;101302.66;;;1.35;100.00
7441;BME280;29616;51.950;8.572;2023-01-28T07:21:45;101306.47;;;1.29;100.00
7441;BME280;29616;51.950;8.572;2023-01-28T07:24:13;101305.59;;;1.29;100.00
7441;BME280;29616;51.950;8.572;2023-01-28T07:26:43;101305.59;;;1.29;100.00
7441;BME280;29616;51.950;8.572;2023-01-28T07:29:12;101296.91;;;1.22;100.00
7441;BME280;29616;51.950;8.572;2023-01-28T07:31:44;101309.84;;;1.34;100.00
7441;BME280;29616;51.950;8.572;2023-01-28T07:34:14;101313.53;;;1.32;100.00
7441;BME280;29616;51.950;8.572;2023-01-28T07:36:44;101317.31;;;1.28;100.00
7441;BME280;29616;51.950;8.572;2023-01-28T07:39:13;101313.53;;;1.32;100.00
7441;BME280;29616;51.950;8.572;2023-01-28T07:41:42;101309.84;;;1.34;100.00
7441;BME280;29616;51.950;8.572;2023-01-28T07:44:28;101315.31;;;1.33;100.00
7441;BME280;29616;51.950;8.572;2023-01-28T07:47:00;101324.06;;;1.38;100.00
7441;BME280;29616;51.950;8.572;2023-01-28T07:49:30;101317.72;;;1.39;100.00
7441;BME280;29616;51.950;8.572;2023-01-28T07:52:01;101319.34;;;1.43;100.00
7441;BME280;29616;51.950;8.572;2023-01-28T07:54:30;101324.50;;;1.49;100.00
7441;BME280;29616;51.950;8.572;2023-01-28T07:57:01;101323.59;;;1.48;100.00
7441;BME280;29616;51.950;8.572;2023-01-28T07:59:33;101320.41;;;1.39;100.00
7441;BME280;29616;51.950;8.572;2023-01-28T08:02:03;101320.69;;;1.53;100.00
7441;BME280;29616;51.950;8.572;2023-01-28T08:04:33;101323.28;;;1.56;100.00
7441;BME280;29616;51.950;8.572;2023-01-28T08:07:02;101329.06;;;1.67;100.00
7441;BME280;29616;51.950;8.572;2023-01-28T08:09:35;101336.81;;;1.74;100.00
7441;BME280;29616;51.950;8.572;2023-01-28T08:12:06;101339.50;;;1.74;100.00
7441;BME280;29616;51.950;8.572;2023-01-28T08:14:35;101334.19;;;1.73;100.00
7441;BME280;29616;51.950;8.572;2023-01-28T08:17:07;101355.75;;;1.73;100.00
7441;BME280;29616;51.950;8.572;2023-01-28T08:19:35;101349.34;;;1.75;100.00
7441;BME280;29616;51.950;8.572;2023-01-28T08:22:06;101354.53;;;1.80;100.00
7441;BME280;29616;51.950;8.572;2023-01-28T08:24:35;101358.13;;;1.80;100.00
7441;BME280;29616;51.950;8.572;2023-01-28T08:27:05;101367.06;;;1.81;100.00
7441;BME280;29616;51.950;8.572;2023-01-28T08:29:35;101363.84;;;1.93;100.00
7441;BME280;29616;51.950;8.572;2023-01-28T08:32:04;101354.38;;;2.03;100.00
7441;BME280;29616;51.950;8.572;2023-01-28T08:34:35;101361.94;;;1.95;100.00
7441;BME280;29616;51.950;8.572;2023-01-28T08:37:04;101366.13;;;2.02;100.00
7441;BME280;29616;51.950;8.572;2023-01-28T08:39:34;101372.34;;;2.04;100.00
7441;BME280;29616;51.950;8.572;2023-01-28T08:42:05;101382.41;;;2.19;100.00
7441;BME280;29616;51.950;8.572;2023-01-28T08:44:35;101381.94;;;2.30;100.00
7441;BME280;29616;51.950;8.572;2023-01-28T08:47:03;101381.13;;;2.28;100.00
7441;BME280;29616;51.950;8.572;2023-01-28T08:49:32;101369.19;;;2.13;100.00
7441;BME280;29616;51.950;8.572;2023-01-28T08:52:03;101387.16;;;2.14;100.00
7441;BME280;29616;51.950;8.572;2023-01-28T08:54:33;101397.06;;;2.14;100.00
7441;BME280;29616;51.950;8.572;2023-01-28T08:57:03;101402.44;;;2.34;100.00
7441;BME280;29616;51.950;8.572;2023-01-28T08:59:33;101396.03;;;2.36;100.00
7441;BME280;29616;51.950;8.572;2023-01-28T09:02:02;101401.88;;;2.46;100.00
7441;BME280;29616;51.950;8.572;2023-01-28T09:04:31;101408.03;;;2.50;100.00
7441;BME280;29616;51.950;8.572;2023-01-28T09:06:59;101411.38;;;2.55;100.00
7441;BME280;29616;51.950;8.572;2023-01-28T09:09:29;101417.78;;;2.52;100.00
7441;BME280;29616;51.950;8.572;2023-01-28T09:12:00;101425.28;;;2.45;100.00
7441;BME280;29616;51.950;8.572;2023-01-28T09:14:29;101419.09;;;2.43;100.00
7441;BME280;29616;51.950;8.572;2023-01-28T09:16:59;101434.13;;;2.49;100.00
7441;BME280;29616;51.950;8.572;2023-01-28T09:19:27;101432.97;;;2.34;100.00
7441;BME280;29616;51.950;8.572;2023-01-28T09:21:57;101438.41;;;2.14;100.00
7441;BME280;29616;51.950;8.572;2023-01-28T09:24:28;101435.41;;;2.40;100.00
7441;BME280;29616;51.950;8.572;2023-01-28T09:26:58;101433.25;;;2.49;100.00
7441;BME280;29616;51.950;8.572;2023-01-28T09:29:27;101437.22;;;2.60;100.00
7441;BME280;29616;51.950;8.572;2023-01-28T09:31:58;101449.69;;;2.63;100.00
7441;BME280;29616;51.950;8.572;2023-01-28T09:34:28;101434.38;;;2.43;100.00
7441;BME280;29616;51.950;8.572;2023-01-28T09:36:56;101443.50;;;2.61;100.00
7441;BME280;29616;51.950;8.572;2023-01-28T09:39:24;101446.09;;;2.62;100.00
7441;BME280;29616;51.950;8.572;2023-01-28T09:42:22;101443.91;;;2.52;100.00
7441;BME280;29616;51.950;8.572;2023-01-28T09:45:04;101442.28;;;2.47;100.00
7441;BME280;29616;51.950;8.572;2023-01-28T09:47:42;101438.84;;;2.44;100.00
7441;BME280;29616;51.950;8.572;2023-01-28T09:50:17;101447.75;;;2.46;100.00
7441;BME280;29616;51.950;8.572;2023-01-28T09:52:47;101452.34;;;2.44;100.00
7441;BME280;29616;51.950;8.572;2023-01-28T09:55:24;101457.47;;;2.30;100.00
7441;BME280;29616;51.950;8.572;2023-01-28T09:57:59;101448.94;;;2.20;100.00
7441;BME280;29616;51.950;8.572;2023-01-28T10:00:35;101467.38;;;2.29;100.00
7441;BME280;29616;51.950;8.572;2023-01-28T10:03:39;101452.09;;;2.30;100.00
7441;BME280;29616;51.950;8.572;2023-01-28T10:06:22;101445.66;;;2.32;100.00
7441;BME280;29616;51.950;8.572;2023-01-28T10:09:16;101452.78;;;2.54;100.00
7441;BME280;29616;51.950;8.572;2023-01-28T10:12:01;101457.22;;;2.75;100.00
7441;BME280;29616;51.950;8.572;2023-01-28T10:14:49;101449.91;;;2.77;100.00
7441;BME280;29616;51.950;8.572;2023-01-28T10:17:27;101438.41;;;2.92;100.00
7441;BME280;29616;51.950;8.572;2023-01-28T10:20:04;101436.38;;;2.97;100.00
7441;BME280;29616;51.950;8.572;2023-01-28T10:22:37;101441.69;;;2.98;100.00
7441;BME280;29616;51.950;8.572;2023-01-28T10:25:16;101429.94;;;2.99;100.00
7441;BME280;29616;51.950;8.572;2023-01-28T10:27:47;101403.03;;;2.98;100.00
7441;BME280;29616;51.950;8.572;2023-01-28T10:30:21;101390.81;;;2.71;100.00
7441;BME280;29616;51.950;8.572;2023-01-28T10:32:55;101411.47;;;2.90;100.00
7441;BME280;29616;51.950;8.572;2023-01-28T10:35:26;101433.56;;;2.80;100.00
7441;BME280;29616;51.950;8.572;2023-01-28T10:38:01;101434.22;;;2.85;100.00
7441;BME280;29616;51.950;8.572;2023-01-28T10:40:34;101442.47;;;2.63;100.00
7441;BME280;29616;51.950;8.572;2023-01-28T10:43:03;101430.66;;;2.66;100.00
7441;BME280;29616;51.950;8.572;2023-01-28T10:45:37;101426.50;;;2.77;100.00
7441;BME280;29616;51.950;8.572;2023-01-28T10:48:18;101433.56;;;2.98;100.00
7441;BME280;29616;51.950;8.572;2023-01-28T10:50:53;101437.09;;;3.00;100.00
7441;BME280;29616;51.950;8.572;2023-01-28T10:53:37;101440.00;;;2.96;100.00
7441;BME280;29616;51.950;8.572;2023-01-28T10:56:08;101451.63;;;2.79;100.00
7441;BME280;29616;51.950;8.572;2023-01-28T10:58:56;101447.66;;;2.68;100.00
7441;BME280;29616;51.950;8.572;2023-01-28T11:01:41;101458.31;;;2.71;100.00
7441;BME280;29616;51.950;8.572;2023-01-28T11:04:18;101461.19;;;2.86;100.00
7441;BME280;29616;51.950;8.572;2023-01-28T11:06:53;101458.31;;;2.71;100.00
7441;BME280;29616;51.950;8.572;2023-01-28T11:09:27;101443.03;;;2.51;100.00
7441;BME280;29616;51.950;8.572;2023-01-28T11:12:09;101472.66;;;2.53;100.00
7441;BME280;29616;51.950;8.572;2023-01-28T11:14:48;101464.69;;;2.50;100.00
7441;BME280;29616;51.950;8.572;2023-01-28T11:17:22;101447.56;;;2.69;100.00
7441;BME280;29616;51.950;8.572;2023-01-28T11:19:52;101462.47;;;2.78;100.00
7441;BME280;29616;51.950;8.572;2023-01-28T11:22:30;101456.53;;;2.70;100.00
7441;BME280;29616;51.950;8.572;2023-01-28T11:25:01;101455.75;;;2.68;100.00
7441;BME280;29616;51.950;8.572;2023-01-28T11:27:31;101442.00;;;2.54;100.00
7441;BME280;29616;51.950;8.572;2023-01-28T11:30:02;101456.59;;;2.50;100.00
7441;BME280;29616;51.950;8.572;2023-01-28T11:32:33;101451.59;;;2.40;100.00
7441;BME280;29616;51.950;8.572;2023-01-28T11:35:05;101427.84;;;2.49;100.00
7441;BME280;29616;51.950;8.572;2023-01-28T11:37:36;101446.63;;;2.70;100.00
7441;BME280;29616;51.950;8.572;2023-01-28T11:40:17;101436.44;;;2.38;100.00
7441;BME280;29616;51.950;8.572;2023-01-28T11:42:48;101447.03;;;2.61;100.00
7441;BME280;29616;51.950;8.572;2023-01-28T11:45:23;101426.09;;;2.66;100.00
7441;BME280;29616;51.950;8.572;2023-01-28T11:48:14;101443.06;;;2.88;100.00
7441;BME280;29616;51.950;8.572;2023-01-28T11:50:50;101443.34;;;3.01;100.00
7441;BME280;29616;51.950;8.572;2023-01-28T11:53:53;101428.63;;;3.27;100.00
7441;BME280;29616;51.950;8.572;2023-01-28T11:56:43;101424.47;;;3.55;100.00
7441;BME280;29616;51.950;8.572;2023-01-28T11:59:32;101416.84;;;3.63;100.00
7441;BME280;29616;51.950;8.572;2023-01-28T12:02:19;101413.84;;;3.70;100.00
7441;BME280;29616;51.950;8.572;2023-01-28T12:05:07;101410.94;;;3.73;100.00
7441;BME280;29616;51.950;8.572;2023-01-28T12:07:47;101410.81;;;3.76;100.00
7441;BME280;29616;51.950;8.572;2023-01-28T12:10:23;101407.00;;;4.31;100.00
7441;BME280;29616;51.950;8.572;2023-01-28T12:13:06;101405.59;;;4.72;100.00
7441;BME280;29616;51.950;8.572;2023-01-28T12:19:03;101389.53;;;7.07;100.00
7441;BME280;29616;51.950;8.572;2023-01-28T12:21:57;101382.78;;;7.54;100.00
7441;BME280;29616;51.950;8.572;2023-01-28T12:25:00;101389.34;;;8.42;100.00
7441;BME280;29616;51.950;8.572;2023-01-28T12:27:44;101370.81;;;8.35;92.46
7441;BME280;29616;51.950;8.572;2023-01-28T12:30:24;101352.06;;;7.78;95.06
7441;BME280;29616;51.950;8.572;2023-01-28T12:33:12;101355.50;;;8.07;92.06
7441;BME280;29616;51.950;8.572;2023-01-28T12:35:55;101332.97;;;9.17;80.07
7441;BME280;29616;51.950;8.572;2023-01-28T12:38:41;101314.44;;;7.98;87.43
7441;BME280;29616;51.950;8.572;2023-01-28T12:41:15;101314.06;;;7.38;91.14
7441;BME280;29616;51.950;8.572;2023-01-28T12:43:50;101305.66;;;7.55;93.45
7441;BME280;29616;51.950;8.572;2023-01-28T12:46:44;101299.47;;;8.79;80.36
7441;BME280;29616;51.950;8.572;2023-01-28T12:49:19;101279.97;;;9.32;76.80
7441;BME280;29616;51.950;8.572;2023-01-28T12:52:01;101267.94;;;8.13;81.17
7441;BME280;29616;51.950;8.572;2023-01-28T12:54:39;101256.19;;;7.36;82.85
7441;BME280;29616;51.950;8.572;2023-01-28T12:57:15;101263.13;;;7.79;83.32
7441;BME280;29616;51.950;8.572;2023-01-28T12:59:50;101261.69;;;7.21;83.90
7441;BME280;29616;51.950;8.572;2023-01-28T13:02:25;101262.69;;;5.53;100.00
7441;BME280;29616;51.950;8.572;2023-01-28T13:05:07;101306.88;;;4.62;100.00
7441;BME280;29616;51.950;8.572;2023-01-28T13:07:40;101307.03;;;4.11;100.00
7441;BME280;29616;51.950;8.572;2023-01-28T13:10:20;101313.41;;;4.43;100.00
7441;BME280;29616;51.950;8.572;2023-01-28T13:12:51;101289.81;;;6.81;100.00
7441;BME280;29616;51.950;8.572;2023-01-28T13:15:21;101294.63;;;8.33;94.56
7441;BME280;29616;51.950;8.572;2023-01-28T13:17:55;101276.72;;;9.03;81.88
7441;BME280;29616;51.950;8.572;2023-01-28T13:20:37;101290.88;;;9.56;77.73
7441;BME280;29616;51.950;8.572;2023-01-28T13:23:21;101292.69;;;8.48;76.65
7441;BME280;29616;51.950;8.572;2023-01-28T13:25:53;101304.13;;;10.30;73.76
7441;BME280;29616;51.950;8.572;2023-01-28T13:28:29;101318.09;;;10.82;66.57
7441;BME280;29616;51.950;8.572;2023-01-28T13:31:03;101292.09;;;10.55;65.16
7441;BME280;29616;51.950;8.572;2023-01-28T13:33:35;101315.09;;;9.95;64.68
7441;BME280;29616;51.950;8.572;2023-01-28T13:36:16;101339.00;;;7.83;77.91
7441;BME280;29616;51.950;8.572;2023-01-28T13:39:01;101349.47;;;9.03;73.14
7441;BME280;29616;51.950;8.572;2023-01-28T13:41:41;101334.97;;;7.76;75.19
7441;BME280;29616;51.950;8.572;2023-01-28T13:44:19;101335.53;;;9.31;72.82
7441;BME280;29616;51.950;8.572;2023-01-28T13:46:48;101344.69;;;9.77;70.20